sensor_id;sensor_type;location;lat;lon;timestamp;P1;durP1;ratioP1;P2;durP2;ratioP2
22764;SDS011;11549;50.852;3.816;2023-06-22T00:01:23;9.85;;;6.55;;
22764;SDS011;11549;50.852;3.816;2023-06-22T00:03:53;9.90;;;6.53;;
22764;SDS011;11549;50.852;3.816;2023-06-22T00:06:21;10.57;;;6.90;;
22764;SDS011;11549;50.852;3.816;2023-06-22T00:08:49;10.70;;;7.40;;
22764;SDS011;11549;50.852;3.816;2023-06-22T00:11:18;11.30;;;8.32;;
22764;SDS011;11549;50.852;3.816;2023-06-22T00:13:46;13.20;;;8.32;;
22764;SDS011;11549;50.852;3.816;2023-06-22T00:16:16;12.82;;;7.88;;
22764;SDS011;11549;50.852;3.816;2023-06-22T00:18:44;10.50;;;7.50;;
22764;SDS011;11549;50.852;3.816;2023-06-22T00:21:18;9.43;;;7.13;;
22764;SDS011;11549;50.852;3.816;2023-06-22T00:23:47;12.77;;;7.43;;
22764;SDS011;11549;50.852;3.816;2023-06-22T00:26:15;13.15;;;8.50;;
22764;SDS011;11549;50.852;3.816;2023-06-22T00:28:44;9.52;;;7.10;;
22764;SDS011;11549;50.852;3.816;2023-06-22T00:31:13;11.30;;;8.23;;
22764;SDS011;11549;50.852;3.816;2023-06-22T00:33:41;14.25;;;8.55;;
22764;SDS011;11549;50.852;3.816;2023-06-22T00:36:10;12.93;;;8.55;;
22764;SDS011;11549;50.852;3.816;2023-06-22T00:38:41;15.63;;;8.77;;
22764;SDS011;11549;50.852;3.816;2023-06-22T00:41:09;12.15;;;7.97;;
22764;SDS011;11549;50.852;3.816;2023-06-22T00:43:37;13.88;;;8.57;;
22764;SDS011;11549;50.852;3.816;2023-06-22T00:46:09;11.20;;;8.23;;
22764;SDS011;11549;50.852;3.816;2023-06-22T00:48:37;12.38;;;8.43;;
22764;SDS011;11549;50.852;3.816;2023-06-22T00:51:10;13.05;;;8.57;;
22764;SDS011;11549;50.852;3.816;2023-06-22T00:53:39;13.77;;;8.73;;
22764;SDS011;11549;50.852;3.816;2023-06-22T00:56:09;13.25;;;8.85;;
22764;SDS011;11549;50.852;3.816;2023-06-22T00:58:39;12.98;;;7.90;;
22764;SDS011;11549;50.852;3.816;2023-06-22T01:01:08;13.75;;;9.00;;
22764;SDS011;11549;50.852;3.816;2023-06-22T01:03:36;11.27;;;7.78;;
22764;SDS011;11549;50.852;3.816;2023-06-22T01:06:06;12.38;;;8.25;;
22764;SDS011;11549;50.852;3.816;2023-06-22T01:08:40;13.02;;;9.55;;
22764;SDS011;11549;50.852;3.816;2023-06-22T01:11:16;12.45;;;8.13;;
22764;SDS011;11549;50.852;3.816;2023-06-22T01:13:48;18.00;;;9.25;;
22764;SDS011;11549;50.852;3.816;2023-06-22T01:16:23;15.00;;;9.05;;
22764;SDS011;11549;50.852;3.816;2023-06-22T01:18:55;17.35;;;10.48;;
22764;SDS011;11549;50.852;3.816;2023-06-22T01:21:28;15.52;;;9.30;;
22764;SDS011;11549;50.852;3.816;2023-06-22T01:24:06;13.73;;;10.07;;
22764;SDS011;11549;50.852;3.816;2023-06-22T01:26:43;12.05;;;8.25;;
22764;SDS011;11549;50.852;3.816;2023-06-22T01:29:21;15.52;;;9.82;;
22764;SDS011;11549;50.852;3.816;2023-06-22T01:31:50;17.08;;;10.07;;
22764;SDS011;11549;50.852;3.816;2023-06-22T01:34:20;17.92;;;10.50;;
22764;SDS011;11549;50.852;3.816;2023-06-22T01:36:50;14.52;;;9.60;;
22764;SDS011;11549;50.852;3.816;2023-06-22T01:39:20;14.77;;;9.40;;
22764;SDS011;11549;50.852;3.816;2023-06-22T01:41:49;14.70;;;10.13;;
22764;SDS011;11549;50.852;3.816;2023-06-22T01:44:18;15.45;;;10.48;;
22764;SDS011;11549;50.852;3.816;2023-06-22T01:46:48;14.02;;;9.88;;
22764;SDS011;11549;50.852;3.816;2023-06-22T01:49:20;16.00;;;10.68;;
22764;SDS011;11549;50.852;3.816;2023-06-22T01:51:49;16.25;;;10.43;;
22764;SDS011;11549;50.852;3.816;2023-06-22T01:54:17;15.93;;;11.15;;
22764;SDS011;11549;50.852;3.816;2023-06-22T01:56:45;17.08;;;11.88;;
22764;SDS011;11549;50.852;3.816;2023-06-22T01:59:15;19.23;;;10.80;;
22764;SDS011;11549;50.852;3.816;2023-06-22T02:01:53;16.40;;;10.93;;
22764;SDS011;11549;50.852;3.816;2023-06-22T02:04:37;15.52;;;9.70;;
22764;SDS011;11549;50.852;3.816;2023-06-22T02:07:12;13.55;;;9.52;;
22764;SDS011;11549;50.852;3.816;2023-06-22T02:09:44;16.00;;;10.45;;
22764;SDS011;11549;50.852;3.816;2023-06-22T02:12:16;13.82;;;10.48;;
22764;SDS011;11549;50.852;3.816;2023-06-22T02:14:46;16.60;;;9.98;;
22764;SDS011;11549;50.852;3.816;2023-06-22T02:17:17;14.70;;;9.60;;
22764;SDS011;11549;50.852;3.816;2023-06-22T02:19:45;17.30;;;11.73;;
22764;SDS011;11549;50.852;3.816;2023-06-22T02:22:14;15.75;;;10.40;;
22764;SDS011;11549;50.852;3.816;2023-06-22T02:24:42;15.05;;;10.43;;
22764;SDS011;11549;50.852;3.816;2023-06-22T02:27:11;13.60;;;9.15;;
22764;SDS011;11549;50.852;3.816;2023-06-22T02:29:39;11.80;;;8.68;;
22764;SDS011;11549;50.852;3.816;2023-06-22T02:32:07;12.82;;;8.57;;
22764;SDS011;11549;50.852;3.816;2023-06-22T02:34:38;12.52;;;9.02;;
22764;SDS011;11549;50.852;3.816;2023-06-22T02:37:06;14.98;;;10.38;;
22764;SDS011;11549;50.852;3.816;2023-06-22T02:39:37;19.13;;;11.90;;
22764;SDS011;11549;50.852;3.816;2023-06-22T02:42:05;14.45;;;10.70;;
22764;SDS011;11549;50.852;3.816;2023-06-22T02:44:34;14.38;;;9.77;;
22764;SDS011;11549;50.852;3.816;2023-06-22T02:47:02;13.32;;;9.25;;
22764;SDS011;11549;50.852;3.816;2023-06-22T02:49:31;12.52;;;8.73;;
22764;SDS011;11549;50.852;3.816;2023-06-22T02:52:01;14.02;;;9.10;;
22764;SDS011;11549;50.852;3.816;2023-06-22T02:54:29;14.02;;;9.52;;
22764;SDS011;11549;50.852;3.816;2023-06-22T02:56:59;15.80;;;10.00;;
22764;SDS011;11549;50.852;3.816;2023-06-22T02:59:29;12.82;;;9.27;;
22764;SDS011;11549;50.852;3.816;2023-06-22T03:01:59;14.77;;;10.07;;
22764;SDS011;11549;50.852;3.816;2023-06-22T03:04:29;13.88;;;9.45;;
22764;SDS011;11549;50.852;3.816;2023-06-22T03:06:58;14.30;;;9.38;;
22764;SDS011;11549;50.852;3.816;2023-06-22T03:09:29;12.45;;;8.27;;
22764;SDS011;11549;50.852;3.816;2023-06-22T03:11:57;11.85;;;8.55;;
22764;SDS011;11549;50.852;3.816;2023-06-22T03:14:26;12.48;;;9.30;;
22764;SDS011;11549;50.852;3.816;2023-06-22T03:16:54;14.30;;;9.52;;
22764;SDS011;11549;50.852;3.816;2023-06-22T03:19:29;16.48;;;9.57;;
22764;SDS011;11549;50.852;3.816;2023-06-22T03:21:59;13.15;;;9.30;;
22764;SDS011;11549;50.852;3.816;2023-06-22T03:24:29;15.30;;;10.05;;
22764;SDS011;11549;50.852;3.816;2023-06-22T03:26:57;14.05;;;9.70;;
22764;SDS011;11549;50.852;3.816;2023-06-22T03:29:27;13.63;;;9.70;;
22764;SDS011;11549;50.852;3.816;2023-06-22T03:31:56;15.25;;;9.60;;
22764;SDS011;11549;50.852;3.816;2023-06-22T03:34:25;15.05;;;9.80;;
22764;SDS011;11549;50.852;3.816;2023-06-22T03:36:53;14.85;;;10.52;;
22764;SDS011;11549;50.852;3.816;2023-06-22T03:39:22;16.20;;;9.93;;
22764;SDS011;11549;50.852;3.816;2023-06-22T03:41:51;15.13;;;10.57;;
22764;SDS011;11549;50.852;3.816;2023-06-22T03:44:20;14.68;;;9.82;;
22764;SDS011;11549;50.852;3.816;2023-06-22T03:46:48;12.93;;;9.05;;
22764;SDS011;11549;50.852;3.816;2023-06-22T03:49:16;15.23;;;10.07;;
22764;SDS011;11549;50.852;3.816;2023-06-22T03:51:44;14.90;;;10.30;;
22764;SDS011;11549;50.852;3.816;2023-06-22T03:54:13;15.27;;;10.50;;
22764;SDS011;11549;50.852;3.816;2023-06-22T03:56:41;15.43;;;9.98;;
22764;SDS011;11549;50.852;3.816;2023-06-22T03:59:11;12.55;;;9.25;;
22764;SDS011;11549;50.852;3.816;2023-06-22T04:01:39;12.70;;;8.52;;
22764;SDS011;11549;50.852;3.816;2023-06-22T04:04:07;10.82;;;8.25;;
22764;SDS011;11549;50.852;3.816;2023-06-22T04:06:36;13.98;;;9.15;;
22764;SDS011;11549;50.852;3.816;2023-06-22T04:09:05;14.13;;;9.43;;
22764;SDS011;11549;50.852;3.816;2023-06-22T04:11:33;15.63;;;10.20;;
22764;SDS011;11549;50.852;3.816;2023-06-22T04:14:02;19.40;;;12.50;;
22764;SDS011;11549;50.852;3.816;2023-06-22T04:16:31;16.63;;;11.20;;
22764;SDS011;11549;50.852;3.816;2023-06-22T04:19:00;16.83;;;9.75;;
22764;SDS011;11549;50.852;3.816;2023-06-22T04:21:28;14.48;;;9.93;;
22764;SDS011;11549;50.852;3.816;2023-06-22T04:23:57;21.33;;;11.70;;
22764;SDS011;11549;50.852;3.816;2023-06-22T04:26:25;20.60;;;10.40;;
22764;SDS011;11549;50.852;3.816;2023-06-22T04:28:54;14.55;;;10.43;;
22764;SDS011;11549;50.852;3.816;2023-06-22T04:31:22;19.42;;;10.23;;
22764;SDS011;11549;50.852;3.816;2023-06-22T04:34:00;15.20;;;10.20;;
22764;SDS011;11549;50.852;3.816;2023-06-22T04:36:33;14.52;;;10.07;;
22764;SDS011;11549;50.852;3.816;2023-06-22T04:39:06;15.15;;;10.35;;
22764;SDS011;11549;50.852;3.816;2023-06-22T04:41:36;15.38;;;9.60;;
22764;SDS011;11549;50.852;3.816;2023-06-22T04:46:38;13.52;;;8.93;;
22764;SDS011;11549;50.852;3.816;2023-06-22T04:49:08;16.15;;;9.93;;
22764;SDS011;11549;50.852;3.816;2023-06-22T04:51:38;15.55;;;10.95;;
22764;SDS011;11549;50.852;3.816;2023-06-22T04:54:08;14.32;;;9.38;;
22764;SDS011;11549;50.852;3.816;2023-06-22T04:56:37;14.25;;;9.88;;
22764;SDS011;11549;50.852;3.816;2023-06-22T04:59:08;12.68;;;8.93;;
22764;SDS011;11549;50.852;3.816;2023-06-22T05:01:39;12.63;;;9.55;;
22764;SDS011;11549;50.852;3.816;2023-06-22T05:04:09;13.93;;;10.50;;
22764;SDS011;11549;50.852;3.816;2023-06-22T05:06:38;12.70;;;9.95;;
22764;SDS011;11549;50.852;3.816;2023-06-22T05:09:06;14.60;;;9.88;;
22764;SDS011;11549;50.852;3.816;2023-06-22T05:11:35;15.30;;;11.05;;
22764;SDS011;11549;50.852;3.816;2023-06-22T05:14:03;15.90;;;11.30;;
22764;SDS011;11549;50.852;3.816;2023-06-22T05:16:31;12.73;;;10.05;;
22764;SDS011;11549;50.852;3.816;2023-06-22T05:19:00;14.77;;;10.63;;
22764;SDS011;11549;50.852;3.816;2023-06-22T05:21:31;14.60;;;9.77;;
22764;SDS011;11549;50.852;3.816;2023-06-22T05:23:59;14.20;;;10.02;;
22764;SDS011;11549;50.852;3.816;2023-06-22T05:26:29;14.23;;;9.98;;
22764;SDS011;11549;50.852;3.816;2023-06-22T05:28:58;14.82;;;9.65;;
22764;SDS011;11549;50.852;3.816;2023-06-22T05:31:27;14.52;;;9.82;;
22764;SDS011;11549;50.852;3.816;2023-06-22T05:33:57;14.05;;;10.10;;
22764;SDS011;11549;50.852;3.816;2023-06-22T05:36:26;14.27;;;10.07;;
22764;SDS011;11549;50.852;3.816;2023-06-22T05:38:57;14.00;;;10.65;;
22764;SDS011;11549;50.852;3.816;2023-06-22T05:41:25;14.88;;;11.05;;
22764;SDS011;11549;50.852;3.816;2023-06-22T05:43:54;14.50;;;10.60;;
22764;SDS011;11549;50.852;3.816;2023-06-22T05:46:22;15.88;;;11.10;;
22764;SDS011;11549;50.852;3.816;2023-06-22T05:48:51;14.48;;;11.05;;
22764;SDS011;11549;50.852;3.816;2023-06-22T05:51:19;15.80;;;10.25;;
22764;SDS011;11549;50.852;3.816;2023-06-22T05:53:48;14.90;;;11.48;;
22764;SDS011;11549;50.852;3.816;2023-06-22T05:56:18;17.95;;;11.77;;
22764;SDS011;11549;50.852;3.816;2023-06-22T05:58:47;14.77;;;11.88;;
22764;SDS011;11549;50.852;3.816;2023-06-22T06:01:15;15.75;;;12.52;;
22764;SDS011;11549;50.852;3.816;2023-06-22T06:03:43;19.08;;;11.98;;
22764;SDS011;11549;50.852;3.816;2023-06-22T06:06:12;17.00;;;12.43;;
22764;SDS011;11549;50.852;3.816;2023-06-22T06:08:40;14.75;;;11.00;;
22764;SDS011;11549;50.852;3.816;2023-06-22T06:11:09;13.98;;;11.05;;
22764;SDS011;11549;50.852;3.816;2023-06-22T06:13:39;15.27;;;11.68;;
22764;SDS011;11549;50.852;3.816;2023-06-22T06:16:07;17.40;;;13.07;;
22764;SDS011;11549;50.852;3.816;2023-06-22T06:18:35;17.50;;;12.85;;
22764;SDS011;11549;50.852;3.816;2023-06-22T06:21:04;18.55;;;12.98;;
22764;SDS011;11549;50.852;3.816;2023-06-22T06:23:33;15.52;;;12.25;;
22764;SDS011;11549;50.852;3.816;2023-06-22T06:26:01;17.40;;;13.13;;
22764;SDS011;11549;50.852;3.816;2023-06-22T06:28:34;21.55;;;14.50;;
22764;SDS011;11549;50.852;3.816;2023-06-22T06:31:04;17.88;;;13.40;;
22764;SDS011;11549;50.852;3.816;2023-06-22T06:33:34;18.02;;;12.82;;
22764;SDS011;11549;50.852;3.816;2023-06-22T06:36:02;17.77;;;14.15;;
22764;SDS011;11549;50.852;3.816;2023-06-22T06:38:31;19.85;;;14.50;;
22764;SDS011;11549;50.852;3.816;2023-06-22T06:40:59;18.95;;;14.45;;
22764;SDS011;11549;50.852;3.816;2023-06-22T06:43:28;19.08;;;14.20;;
22764;SDS011;11549;50.852;3.816;2023-06-22T06:45:56;17.83;;;13.35;;
22764;SDS011;11549;50.852;3.816;2023-06-22T06:48:26;21.00;;;14.90;;
22764;SDS011;11549;50.852;3.816;2023-06-22T06:50:54;20.05;;;14.35;;
22764;SDS011;11549;50.852;3.816;2023-06-22T06:53:22;20.90;;;14.82;;
22764;SDS011;11549;50.852;3.816;2023-06-22T06:55:50;19.63;;;14.32;;
22764;SDS011;11549;50.852;3.816;2023-06-22T06:58:19;17.63;;;13.85;;
22764;SDS011;11549;50.852;3.816;2023-06-22T07:00:49;20.58;;;14.38;;
22764;SDS011;11549;50.852;3.816;2023-06-22T07:03:17;19.45;;;15.75;;
22764;SDS011;11549;50.852;3.816;2023-06-22T07:05:47;19.83;;;15.85;;
22764;SDS011;11549;50.852;3.816;2023-06-22T07:08:15;18.65;;;14.07;;
22764;SDS011;11549;50.852;3.816;2023-06-22T07:10:43;20.15;;;15.43;;
22764;SDS011;11549;50.852;3.816;2023-06-22T07:13:12;20.65;;;14.60;;
22764;SDS011;11549;50.852;3.816;2023-06-22T07:15:40;18.48;;;15.82;;
22764;SDS011;11549;50.852;3.816;2023-06-22T07:18:08;21.65;;;16.30;;
22764;SDS011;11549;50.852;3.816;2023-06-22T07:20:37;20.65;;;15.88;;
22764;SDS011;11549;50.852;3.816;2023-06-22T07:23:08;18.08;;;15.52;;
22764;SDS011;11549;50.852;3.816;2023-06-22T07:25:37;21.40;;;16.33;;
22764;SDS011;11549;50.852;3.816;2023-06-22T07:28:06;18.92;;;16.10;;
22764;SDS011;11549;50.852;3.816;2023-06-22T07:30:35;17.98;;;15.27;;
22764;SDS011;11549;50.852;3.816;2023-06-22T07:33:03;18.48;;;15.77;;
22764;SDS011;11549;50.852;3.816;2023-06-22T07:35:35;19.48;;;15.65;;
22764;SDS011;11549;50.852;3.816;2023-06-22T07:38:04;17.73;;;15.40;;
22764;SDS011;11549;50.852;3.816;2023-06-22T07:40:33;18.27;;;15.82;;
22764;SDS011;11549;50.852;3.816;2023-06-22T07:43:02;19.27;;;16.42;;
22764;SDS011;11549;50.852;3.816;2023-06-22T07:45:31;21.65;;;16.05;;
22764;SDS011;11549;50.852;3.816;2023-06-22T07:48:01;20.30;;;16.42;;
22764;SDS011;11549;50.852;3.816;2023-06-22T07:50:30;20.30;;;16.58;;
22764;SDS011;11549;50.852;3.816;2023-06-22T07:52:58;18.95;;;16.27;;
22764;SDS011;11549;50.852;3.816;2023-06-22T07:55:26;21.10;;;16.35;;
22764;SDS011;11549;50.852;3.816;2023-06-22T07:57:57;23.48;;;17.75;;
22764;SDS011;11549;50.852;3.816;2023-06-22T08:00:25;21.38;;;17.52;;
22764;SDS011;11549;50.852;3.816;2023-06-22T08:02:54;23.00;;;17.05;;
22764;SDS011;11549;50.852;3.816;2023-06-22T08:05:23;21.25;;;17.08;;
22764;SDS011;11549;50.852;3.816;2023-06-22T08:07:51;21.02;;;16.85;;
22764;SDS011;11549;50.852;3.816;2023-06-22T08:10:20;21.23;;;17.33;;
22764;SDS011;11549;50.852;3.816;2023-06-22T08:12:49;22.70;;;18.83;;
22764;SDS011;11549;50.852;3.816;2023-06-22T08:15:19;22.08;;;18.70;;
22764;SDS011;11549;50.852;3.816;2023-06-22T08:17:48;23.50;;;19.02;;
22764;SDS011;11549;50.852;3.816;2023-06-22T08:20:19;22.20;;;18.52;;
22764;SDS011;11549;50.852;3.816;2023-06-22T08:22:47;24.23;;;19.92;;
22764;SDS011;11549;50.852;3.816;2023-06-22T08:25:16;22.67;;;19.38;;
22764;SDS011;11549;50.852;3.816;2023-06-22T08:27:44;23.38;;;20.55;;
22764;SDS011;11549;50.852;3.816;2023-06-22T08:30:14;23.77;;;20.42;;
22764;SDS011;11549;50.852;3.816;2023-06-22T08:32:44;22.63;;;19.45;;
22764;SDS011;11549;50.852;3.816;2023-06-22T08:35:13;26.08;;;21.05;;
22764;SDS011;11549;50.852;3.816;2023-06-22T08:37:42;27.77;;;22.83;;
22764;SDS011;11549;50.852;3.816;2023-06-22T08:40:17;25.20;;;20.75;;
22764;SDS011;11549;50.852;3.816;2023-06-22T08:42:47;24.00;;;21.20;;
22764;SDS011;11549;50.852;3.816;2023-06-22T08:45:15;27.70;;;21.52;;
22764;SDS011;11549;50.852;3.816;2023-06-22T08:47:45;27.05;;;22.67;;
22764;SDS011;11549;50.852;3.816;2023-06-22T08:50:14;23.48;;;20.83;;
22764;SDS011;11549;50.852;3.816;2023-06-22T08:52:42;27.80;;;22.30;;
22764;SDS011;11549;50.852;3.816;2023-06-22T08:55:12;26.15;;;21.02;;
22764;SDS011;11549;50.852;3.816;2023-06-22T08:57:41;26.10;;;21.98;;
22764;SDS011;11549;50.852;3.816;2023-06-22T09:00:10;26.60;;;23.38;;
22764;SDS011;11549;50.852;3.816;2023-06-22T09:02:50;25.17;;;22.30;;
22764;SDS011;11549;50.852;3.816;2023-06-22T09:05:18;28.63;;;22.38;;
22764;SDS011;11549;50.852;3.816;2023-06-22T09:07:48;29.23;;;24.73;;
22764;SDS011;11549;50.852;3.816;2023-06-22T09:10:17;31.27;;;24.70;;
22764;SDS011;11549;50.852;3.816;2023-06-22T09:12:45;29.92;;;24.70;;
22764;SDS011;11549;50.852;3.816;2023-06-22T09:15:13;30.95;;;25.65;;
22764;SDS011;11549;50.852;3.816;2023-06-22T09:17:44;29.20;;;25.17;;
22764;SDS011;11549;50.852;3.816;2023-06-22T09:20:16;28.25;;;24.50;;
22764;SDS011;11549;50.852;3.816;2023-06-22T09:22:44;29.23;;;25.42;;
22764;SDS011;11549;50.852;3.816;2023-06-22T09:25:13;29.88;;;24.45;;
22764;SDS011;11549;50.852;3.816;2023-06-22T09:27:41;33.90;;;28.02;;
22764;SDS011;11549;50.852;3.816;2023-06-22T09:30:10;33.05;;;27.05;;
22764;SDS011;11549;50.852;3.816;2023-06-22T09:32:38;35.15;;;29.20;;
22764;SDS011;11549;50.852;3.816;2023-06-22T09:35:07;33.17;;;29.38;;
22764;SDS011;11549;50.852;3.816;2023-06-22T09:37:43;33.63;;;28.50;;
22764;SDS011;11549;50.852;3.816;2023-06-22T09:40:11;34.22;;;29.25;;
22764;SDS011;11549;50.852;3.816;2023-06-22T09:42:43;36.45;;;30.77;;
22764;SDS011;11549;50.852;3.816;2023-06-22T09:45:12;34.88;;;29.20;;
22764;SDS011;11549;50.852;3.816;2023-06-22T09:47:40;35.58;;;29.35;;
22764;SDS011;11549;50.852;3.816;2023-06-22T09:50:09;32.67;;;26.67;;
22764;SDS011;11549;50.852;3.816;2023-06-22T09:52:38;33.03;;;28.70;;
22764;SDS011;11549;50.852;3.816;2023-06-22T09:55:15;33.97;;;29.40;;
22764;SDS011;11549;50.852;3.816;2023-06-22T09:57:44;34.90;;;30.23;;
22764;SDS011;11549;50.852;3.816;2023-06-22T10:00:13;37.47;;;33.22;;
22764;SDS011;11549;50.852;3.816;2023-06-22T10:02:43;39.22;;;33.33;;
22764;SDS011;11549;50.852;3.816;2023-06-22T10:05:12;37.30;;;32.20;;
22764;SDS011;11549;50.852;3.816;2023-06-22T10:07:41;38.67;;;33.78;;
22764;SDS011;11549;50.852;3.816;2023-06-22T10:10:11;39.65;;;33.60;;
22764;SDS011;11549;50.852;3.816;2023-06-22T10:12:45;38.97;;;33.53;;
22764;SDS011;11549;50.852;3.816;2023-06-22T10:15:15;40.28;;;35.28;;
22764;SDS011;11549;50.852;3.816;2023-06-22T10:17:44;38.92;;;34.20;;
22764;SDS011;11549;50.852;3.816;2023-06-22T10:20:13;39.47;;;33.88;;
22764;SDS011;11549;50.852;3.816;2023-06-22T10:22:44;40.33;;;35.03;;
22764;SDS011;11549;50.852;3.816;2023-06-22T10:25:13;36.25;;;31.13;;
22764;SDS011;11549;50.852;3.816;2023-06-22T10:27:41;39.17;;;33.35;;
22764;SDS011;11549;50.852;3.816;2023-06-22T10:30:12;38.08;;;31.60;;
22764;SDS011;11549;50.852;3.816;2023-06-22T10:32:41;36.88;;;29.27;;
22764;SDS011;11549;50.852;3.816;2023-06-22T10:35:11;35.38;;;31.50;;
22764;SDS011;11549;50.852;3.816;2023-06-22T10:37:43;36.33;;;31.20;;
22764;SDS011;11549;50.852;3.816;2023-06-22T10:40:12;38.00;;;30.70;;
22764;SDS011;11549;50.852;3.816;2023-06-22T10:42:41;33.42;;;29.80;;
22764;SDS011;11549;50.852;3.816;2023-06-22T10:45:11;33.03;;;28.10;;
22764;SDS011;11549;50.852;3.816;2023-06-22T10:47:40;35.60;;;29.45;;
22764;SDS011;11549;50.852;3.816;2023-06-22T10:50:10;32.50;;;27.60;;
22764;SDS011;11549;50.852;3.816;2023-06-22T10:52:40;31.48;;;27.55;;
22764;SDS011;11549;50.852;3.816;2023-06-22T10:55:09;33.08;;;27.30;;
22764;SDS011;11549;50.852;3.816;2023-06-22T10:57:38;33.22;;;27.45;;
22764;SDS011;11549;50.852;3.816;2023-06-22T11:00:12;34.72;;;29.70;;
22764;SDS011;11549;50.852;3.816;2023-06-22T11:02:42;39.83;;;31.88;;
22764;SDS011;11549;50.852;3.816;2023-06-22T11:05:11;39.60;;;34.25;;
22764;SDS011;11549;50.852;3.816;2023-06-22T11:07:41;40.33;;;33.58;;
22764;SDS011;11549;50.852;3.816;2023-06-22T11:10:15;38.60;;;32.72;;
22764;SDS011;11549;50.852;3.816;2023-06-22T11:12:43;38.33;;;32.30;;
22764;SDS011;11549;50.852;3.816;2023-06-22T11:15:13;36.47;;;29.13;;
22764;SDS011;11549;50.852;3.816;2023-06-22T11:17:41;38.22;;;30.98;;
22764;SDS011;11549;50.852;3.816;2023-06-22T11:20:11;37.72;;;32.15;;
22764;SDS011;11549;50.852;3.816;2023-06-22T11:22:39;36.67;;;30.77;;
22764;SDS011;11549;50.852;3.816;2023-06-22T11:25:08;36.42;;;31.92;;
22764;SDS011;11549;50.852;3.816;2023-06-22T11:27:39;40.00;;;34.08;;
22764;SDS011;11549;50.852;3.816;2023-06-22T11:30:07;36.97;;;31.63;;
22764;SDS011;11549;50.852;3.816;2023-06-22T11:32:37;40.53;;;31.98;;
22764;SDS011;11549;50.852;3.816;2023-06-22T11:35:06;34.92;;;30.45;;
22764;SDS011;11549;50.852;3.816;2023-06-22T11:37:35;36.22;;;29.95;;
22764;SDS011;11549;50.852;3.816;2023-06-22T11:40:03;36.63;;;29.92;;
22764;SDS011;11549;50.852;3.816;2023-06-22T11:42:35;34.85;;;28.23;;
22764;SDS011;11549;50.852;3.816;2023-06-22T11:45:04;30.85;;;25.10;;
22764;SDS011;11549;50.852;3.816;2023-06-22T11:47:34;27.35;;;22.35;;
22764;SDS011;11549;50.852;3.816;2023-06-22T11:50:06;25.70;;;22.02;;
22764;SDS011;11549;50.852;3.816;2023-06-22T11:52:35;25.67;;;21.25;;
22764;SDS011;11549;50.852;3.816;2023-06-22T11:55:03;23.08;;;19.80;;
22764;SDS011;11549;50.852;3.816;2023-06-22T11:57:33;24.73;;;20.10;;
22764;SDS011;11549;50.852;3.816;2023-06-22T12:00:03;24.15;;;19.38;;
22764;SDS011;11549;50.852;3.816;2023-06-22T12:02:41;25.05;;;18.83;;
22764;SDS011;11549;50.852;3.816;2023-06-22T12:05:11;21.35;;;17.63;;
22764;SDS011;11549;50.852;3.816;2023-06-22T12:07:39;23.17;;;18.23;;
22764;SDS011;11549;50.852;3.816;2023-06-22T12:10:08;23.45;;;18.35;;
22764;SDS011;11549;50.852;3.816;2023-06-22T12:12:37;22.98;;;17.92;;
22764;SDS011;11549;50.852;3.816;2023-06-22T12:15:06;21.42;;;16.08;;
22764;SDS011;11549;50.852;3.816;2023-06-22T12:17:35;19.85;;;14.73;;
22764;SDS011;11549;50.852;3.816;2023-06-22T12:20:04;18.90;;;15.13;;
22764;SDS011;11549;50.852;3.816;2023-06-22T12:22:36;17.80;;;14.25;;
22764;SDS011;11549;50.852;3.816;2023-06-22T12:25:05;18.25;;;13.73;;
22764;SDS011;11549;50.852;3.816;2023-06-22T12:27:34;20.27;;;15.90;;
22764;SDS011;11549;50.852;3.816;2023-06-22T12:30:03;23.48;;;15.75;;
22764;SDS011;11549;50.852;3.816;2023-06-22T12:32:32;21.48;;;15.60;;
22764;SDS011;11549;50.852;3.816;2023-06-22T12:35:01;20.05;;;15.43;;
22764;SDS011;11549;50.852;3.816;2023-06-22T12:37:30;17.20;;;14.75;;
22764;SDS011;11549;50.852;3.816;2023-06-22T12:40:01;20.85;;;16.08;;
22764;SDS011;11549;50.852;3.816;2023-06-22T12:42:31;19.85;;;15.85;;
22764;SDS011;11549;50.852;3.816;2023-06-22T12:44:59;18.35;;;15.00;;
22764;SDS011;11549;50.852;3.816;2023-06-22T12:47:28;22.73;;;16.80;;
22764;SDS011;11549;50.852;3.816;2023-06-22T12:49:56;22.20;;;17.35;;
22764;SDS011;11549;50.852;3.816;2023-06-22T12:52:25;21.20;;;16.98;;
22764;SDS011;11549;50.852;3.816;2023-06-22T12:54:54;22.75;;;15.88;;
22764;SDS011;11549;50.852;3.816;2023-06-22T12:57:23;21.65;;;15.93;;
22764;SDS011;11549;50.852;3.816;2023-06-22T12:59:51;19.55;;;15.68;;
22764;SDS011;11549;50.852;3.816;2023-06-22T13:02:21;22.55;;;16.95;;
22764;SDS011;11549;50.852;3.816;2023-06-22T13:04:52;21.15;;;16.90;;
22764;SDS011;11549;50.852;3.816;2023-06-22T13:07:21;21.65;;;17.02;;
22764;SDS011;11549;50.852;3.816;2023-06-22T13:09:50;24.20;;;18.98;;
22764;SDS011;11549;50.852;3.816;2023-06-22T13:12:19;22.27;;;17.30;;
22764;SDS011;11549;50.852;3.816;2023-06-22T13:14:50;25.13;;;18.52;;
22764;SDS011;11549;50.852;3.816;2023-06-22T13:17:21;22.45;;;18.35;;
22764;SDS011;11549;50.852;3.816;2023-06-22T13:19:49;21.55;;;17.92;;
22764;SDS011;11549;50.852;3.816;2023-06-22T13:22:28;22.60;;;18.48;;
22764;SDS011;11549;50.852;3.816;2023-06-22T13:24:59;23.85;;;18.92;;
22764;SDS011;11549;50.852;3.816;2023-06-22T13:27:28;23.80;;;19.23;;
22764;SDS011;11549;50.852;3.816;2023-06-22T13:29:58;27.17;;;21.00;;
22764;SDS011;11549;50.852;3.816;2023-06-22T13:32:27;25.83;;;20.45;;
22764;SDS011;11549;50.852;3.816;2023-06-22T13:34:55;26.02;;;20.00;;
22764;SDS011;11549;50.852;3.816;2023-06-22T13:37:25;23.20;;;20.23;;
22764;SDS011;11549;50.852;3.816;2023-06-22T13:39:53;25.42;;;20.67;;
22764;SDS011;11549;50.852;3.816;2023-06-22T13:42:23;23.13;;;19.52;;
22764;SDS011;11549;50.852;3.816;2023-06-22T13:44:52;25.23;;;19.75;;
22764;SDS011;11549;50.852;3.816;2023-06-22T13:47:21;26.55;;;21.50;;
22764;SDS011;11549;50.852;3.816;2023-06-22T13:49:50;26.15;;;20.08;;
22764;SDS011;11549;50.852;3.816;2023-06-22T13:52:18;23.98;;;19.08;;
22764;SDS011;11549;50.852;3.816;2023-06-22T13:54:47;24.98;;;19.77;;
22764;SDS011;11549;50.852;3.816;2023-06-22T13:57:15;24.88;;;19.83;;
22764;SDS011;11549;50.852;3.816;2023-06-22T13:59:44;24.10;;;18.90;;
22764;SDS011;11549;50.852;3.816;2023-06-22T14:02:12;23.08;;;18.90;;
22764;SDS011;11549;50.852;3.816;2023-06-22T14:04:43;24.38;;;18.92;;
22764;SDS011;11549;50.852;3.816;2023-06-22T14:07:11;23.58;;;18.38;;
22764;SDS011;11549;50.852;3.816;2023-06-22T14:09:40;19.95;;;17.83;;
22764;SDS011;11549;50.852;3.816;2023-06-22T14:12:08;22.20;;;18.00;;
22764;SDS011;11549;50.852;3.816;2023-06-22T14:14:37;21.88;;;18.02;;
22764;SDS011;11549;50.852;3.816;2023-06-22T14:17:06;20.48;;;18.27;;
22764;SDS011;11549;50.852;3.816;2023-06-22T14:19:35;23.83;;;19.00;;
22764;SDS011;11549;50.852;3.816;2023-06-22T14:22:05;22.52;;;19.25;;
22764;SDS011;11549;50.852;3.816;2023-06-22T14:24:33;20.27;;;18.05;;
22764;SDS011;11549;50.852;3.816;2023-06-22T14:27:02;21.45;;;18.75;;
22764;SDS011;11549;50.852;3.816;2023-06-22T14:29:34;21.15;;;18.20;;
22764;SDS011;11549;50.852;3.816;2023-06-22T14:32:03;23.60;;;19.23;;
22764;SDS011;11549;50.852;3.816;2023-06-22T14:34:32;21.80;;;18.70;;
22764;SDS011;11549;50.852;3.816;2023-06-22T14:37:02;22.45;;;19.33;;
22764;SDS011;11549;50.852;3.816;2023-06-22T14:39:33;22.65;;;20.02;;
22764;SDS011;11549;50.852;3.816;2023-06-22T14:42:02;22.02;;;19.73;;